Time;durP1;ratioP1;P1;durP2;ratioP2;P2;SDS_P1;SDS_P2;PMS_P1;PMS_P2;Temp;Humidity;BMP_temperature;BMP_pressure;BME280_temperature;BME280_humidity;BME280_pressure;Samples;Min_cycle;Max_cycle;Signal;HPM_P1;HPM_P2
2023/04/11 00:02:24;;;;;;;2.80;2.70;;;;;;;;;;10267201;28;20221;-79
2023/04/11 00:07:25;;;;;;;3.65;3.15;;;;;;;;;;10248646;28;20256;-80
2023/04/11 00:12:26;;;;;;;3.85;2.95;;;;;;;;;;10249756;28;20666;-79
2023/04/11 00:17:30;;;;;;;3.35;2.83;;;;;;;;;;10264874;28;20222;-80
2023/04/11 00:22:32;;;;;;;2.55;2.45;;;;;;;;;;10284412;28;20217;-81
2023/04/11 00:27:33;;;;;;;3.60;3.33;;;;;;;;;;10263539;28;20263;-81
2023/04/11 00:32:34;;;;;;;2.80;2.67;;;;;;;;;;10248634;28;20224;-80
2023/04/11 00:37:35;;;;;;;3.10;2.90;;;;;;;;;;10236808;28;20244;-81
2023/04/11 00:42:36;;;;;;;3.83;3.53;;;;;;;;;;10244994;28;20307;-80
2023/04/11 00:47:40;;;;;;;4.28;3.67;;;;;;;;;;10255243;28;20821;-80
2023/04/11 00:52:42;;;;;;;4.03;3.72;;;;;;;;;;10217717;28;20233;-80
2023/04/11 00:57:43;;;;;;;3.45;3.15;;;;;;;;;;10254465;28;20708;-79
2023/04/11 01:02:45;;;;;;;4.63;3.85;;;;;;;;;;10251568;28;20220;-81
2023/04/11 01:07:48;;;;;;;4.25;3.85;;;;;;;;;;10252448;28;20264;-81
2023/04/11 01:12:49;;;;;;;5.22;3.83;;;;;;;;;;10241877;28;20724;-81
2023/04/11 01:17:54;;;;;;;4.07;3.78;;;;;;;;;;10256529;28;20236;-80
2023/04/11 01:22:57;;;;;;;5.70;3.55;;;;;;;;;;10271253;28;20224;-81
2023/04/11 01:27:58;;;;;;;4.50;3.95;;;;;;;;;;10258427;28;20218;-84
2023/04/11 01:32:59;;;;;;;3.88;3.55;;;;;;;;;;10247356;28;20232;-80
2023/04/11 01:38:02;;;;;;;4.57;3.70;;;;;;;;;;10261892;28;20225;-81
2023/04/11 01:43:03;;;;;;;3.90;3.70;;;;;;;;;;10258195;28;20210;-80
2023/04/11 01:48:07;;;;;;;3.28;3.08;;;;;;;;;;10249171;28;20245;-82
2023/04/11 01:53:08;;;;;;;3.42;3.13;;;;;;;;;;10252363;28;20247;-81
2023/04/11 01:58:09;;;;;;;3.90;3.60;;;;;;;;;;10250292;28;20313;-81
2023/04/11 02:03:10;;;;;;;4.15;3.78;;;;;;;;;;10246523;28;20862;-80
2023/04/11 02:08:11;;;;;;;3.05;2.85;;;;;;;;;;10263858;28;20222;-81
2023/04/11 02:13:12;;;;;;;4.18;3.85;;;;;;;;;;10258928;28;20226;-80
2023/04/11 02:18:14;;;;;;;4.30;3.03;;;;;;;;;;10274120;28;20725;-81
2023/04/11 02:23:15;;;;;;;3.47;3.22;;;;;;;;;;10268154;28;20221;-80
2023/04/11 02:28:16;;;;;;;3.58;3.33;;;;;;;;;;10261079;28;20301;-78
2023/04/11 02:33:18;;;;;;;3.67;3.38;;;;;;;;;;10273136;28;20360;-81
2023/04/11 02:38:19;;;;;;;3.53;3.33;;;;;;;;;;10288625;28;20222;-81
2023/04/11 02:43:20;;;;;;;2.90;2.70;;;;;;;;;;10257452;28;20268;-81
2023/04/11 02:48:21;;;;;;;3.13;2.95;;;;;;;;;;10279654;28;20232;-82
2023/04/11 02:53:22;;;;;;;3.78;3.53;;;;;;;;;;10267929;28;20233;-82
2023/04/11 02:58:24;;;;;;;3.03;2.83;;;;;;;;;;10271893;28;20898;-82
2023/04/11 03:03:28;;;;;;;4.20;3.33;;;;;;;;;;10274479;28;20233;-80
2023/04/11 03:08:29;;;;;;;2.60;2.50;;;;;;;;;;10266018;28;20221;-81
2023/04/11 03:13:30;;;;;;;3.13;2.92;;;;;;;;;;10253126;28;20236;-80
2023/04/11 03:18:33;;;;;;;3.80;3.42;;;;;;;;;;10280096;28;20242;-80
2023/04/11 03:23:38;;;;;;;3.45;3.10;;;;;;;;;;10249907;28;20217;-81
2023/04/11 03:28:39;;;;;;;3.53;3.22;;;;;;;;;;10273566;28;20239;-81
2023/04/11 03:33:41;;;;;;;3.72;3.42;;;;;;;;;;10257191;28;20902;-81
2023/04/11 03:38:42;;;;;;;3.00;2.80;;;;;;;;;;10252683;28;20233;-81
2023/04/11 03:43:43;;;;;;;2.83;2.72;;;;;;;;;;10272044;28;20276;-81
2023/04/11 03:48:45;;;;;;;13.45;3.33;;;;;;;;;;10256239;28;20275;-81
2023/04/11 03:53:47;;;;;;;3.58;3.28;;;;;;;;;;10254770;28;20782;-81
2023/04/11 03:59:02;;;;;;;4.68;3.90;;;;;;;;;;10257848;28;20240;-81
2023/04/11 04:04:11;;;;;;;3.33;3.13;;;;;;;;;;10266301;28;20218;-81
2023/04/11 04:09:16;;;;;;;3.22;2.35;;;;;;;;;;10250747;28;20216;-82
2023/04/11 04:14:24;;;;;;;2.88;2.67;;;;;;;;;;10244760;28;20621;-81
2023/04/11 04:19:26;;;;;;;3.25;2.95;;;;;;;;;;10262454;28;20260;-81
2023/04/11 04:24:28;;;;;;;2.50;2.40;;;;;;;;;;10264501;28;20300;-83
2023/04/11 04:29:47;;;;;;;2.72;2.58;;;;;;;;;;10245380;28;20224;-81
2023/04/11 04:34:56;;;;;;;3.13;2.47;;;;;;;;;;10268976;28;20226;-81
2023/04/11 04:40:08;;;;;;;2.28;2.17;;;;;;;;;;10239387;28;20244;-81
2023/04/11 04:45:17;;;;;;;2.15;2.05;;;;;;;;;;10244273;28;20301;-81
2023/04/11 04:50:19;;;;;;;5.57;1.42;;;;;;;;;;10248001;28;20244;-79
2023/04/11 04:55:22;;;;;;;1.67;1.58;;;;;;;;;;10241277;28;21755;-82
2023/04/11 05:00:24;;;;;;;1.35;1.33;;;;;;;;;;10261903;28;20221;-78
2023/04/11 05:05:31;;;;;;;1.08;0.85;;;;;;;;;;10239701;28;22240;-80
2023/04/11 05:10:33;;;;;;;1.27;1.00;;;;;;;;;;10274195;28;20236;-80
2023/04/11 05:15:34;;;;;;;0.90;0.80;;;;;;;;;;10245805;28;20224;-80
2023/04/11 05:20:36;;;;;;;1.52;0.90;;;;;;;;;;10257840;28;20220;-79
2023/04/11 05:25:38;;;;;;;0.70;0.70;;;;;;;;;;10276626;28;20700;-80
2023/04/11 05:30:46;;;;;;;0.60;0.60;;;;;;;;;;10264860;28;20225;-82
2023/04/11 05:35:48;;;;;;;0.40;0.40;;;;;;;;;;10244246;28;20315;-81
2023/04/11 05:40:49;;;;;;;1.58;0.90;;;;;;;;;;10283462;28;20790;-80
2023/04/11 05:45:51;;;;;;;1.73;0.60;;;;;;;;;;10270209;28;20225;-81
2023/04/11 05:50:52;;;;;;;0.50;0.50;;;;;;;;;;10271320;28;20229;-81
2023/04/11 05:55:53;;;;;;;0.40;0.40;;;;;;;;;;10259226;28;20229;-80
2023/04/11 06:00:54;;;;;;;0.30;0.30;;;;;;;;;;10276430;28;20243;-79
2023/04/11 06:05:55;;;;;;;0.40;0.35;;;;;;;;;;10253230;28;20220;-81
2023/04/11 06:10:56;;;;;;;2.03;0.30;;;;;;;;;;10283988;28;20224;-80
2023/04/11 06:15:57;;;;;;;0.35;0.35;;;;;;;;;;10249541;28;20302;-79
2023/04/11 06:20:58;;;;;;;0.52;0.40;;;;;;;;;;10254571;28;20538;-80
2023/04/11 06:25:59;;;;;;;0.75;0.45;;;;;;;;;;10266012;28;20220;-81
2023/04/11 06:31:00;;;;;;;1.02;0.45;;;;;;;;;;10262961;28;20224;-80
2023/04/11 06:36:01;;;;;;;2.05;0.60;;;;;;;;;;10270897;28;20223;-81
2023/04/11 06:41:02;;;;;;;1.42;0.50;;;;;;;;;;10256705;28;20319;-81
2023/04/11 06:46:03;;;;;;;3.10;0.50;;;;;;;;;;10284537;28;23132;-80
2023/04/11 06:51:04;;;;;;;1.02;0.50;;;;;;;;;;10270583;28;20687;-80
2023/04/11 06:56:05;;;;;;;0.68;0.30;;;;;;;;;;10267978;28;20217;-80
2023/04/11 07:01:06;;;;;;;0.70;0.30;;;;;;;;;;10266312;28;20817;-81
2023/04/11 07:06:08;;;;;;;0.50;0.50;;;;;;;;;;10266937;28;20668;-81
2023/04/11 07:11:10;;;;;;;1.80;0.40;;;;;;;;;;10277025;28;21139;-80
2023/04/11 07:16:11;;;;;;;0.55;0.50;;;;;;;;;;10264554;28;20214;-81
2023/04/11 07:21:12;;;;;;;0.60;0.60;;;;;;;;;;10251947;28;20796;-81
2023/04/11 07:26:15;;;;;;;1.45;0.40;;;;;;;;;;10267644;28;20248;-80
2023/04/11 07:31:18;;;;;;;0.40;0.40;;;;;;;;;;10267785;28;20544;-81
2023/04/11 07:36:19;;;;;;;0.57;0.40;;;;;;;;;;10272384;28;20801;-82
2023/04/11 07:41:20;;;;;;;1.70;0.65;;;;;;;;;;10265971;28;20244;-79
2023/04/11 07:46:21;;;;;;;1.85;0.60;;;;;;;;;;10248864;28;20213;-80
2023/04/11 07:51:22;;;;;;;2.95;0.70;;;;;;;;;;10241979;28;20216;-81
2023/04/11 07:56:23;;;;;;;1.38;0.90;;;;;;;;;;10266815;28;20212;-78
2023/04/11 08:01:25;;;;;;;1.65;1.05;;;;;;;;;;10248022;28;20232;-81
2023/04/11 08:06:27;;;;;;;2.47;0.70;;;;;;;;;;10244513;28;20210;-81
2023/04/11 08:11:29;;;;;;;1.75;0.90;;;;;;;;;;10260223;28;20735;-81
2023/04/11 08:16:30;;;;;;;1.52;1.10;;;;;;;;;;10252336;28;21152;-79
2023/04/11 08:21:31;;;;;;;4.57;1.35;;;;;;;;;;10248719;28;20226;-80
2023/04/11 08:26:32;;;;;;;3.47;1.15;;;;;;;;;;10283086;28;20731;-81
2023/04/11 08:31:33;;;;;;;1.23;1.15;;;;;;;;;;10282434;28;20261;-81
2023/04/11 08:36:34;;;;;;;4.38;0.40;;;;;;;;;;10260792;28;20303;-82
2023/04/11 08:41:36;;;;;;;0.10;0.10;;;;;;;;;;10261529;28;20221;-77
2023/04/11 08:46:41;;;;;;;1.67;0.10;;;;;;;;;;10247924;28;20252;-80
2023/04/11 08:51:43;;;;;;;0.10;0.10;;;;;;;;;;10279633;28;20246;-81
2023/04/11 08:56:45;;;;;;;0.10;0.10;;;;;;;;;;10269275;28;20221;-82
2023/04/11 09:01:47;;;;;;;0.15;0.10;;;;;;;;;;10285721;28;20220;-83
2023/04/11 09:06:57;;;;;;;1.40;0.20;;;;;;;;;;10286471;28;20226;-82
2023/04/11 09:11:59;;;;;;;0.30;0.30;;;;;;;;;;10265878;28;20221;-80
2023/04/11 09:17:01;;;;;;;0.22;0.20;;;;;;;;;;10275312;28;20209;-81
2023/04/11 09:22:06;;;;;;;1.42;0.30;;;;;;;;;;10274489;28;20217;-81
2023/04/11 09:27:08;;;;;;;0.40;0.40;;;;;;;;;;10253173;28;20734;-83
2023/04/11 09:32:27;;;;;;;0.57;0.40;;;;;;;;;;10281285;28;20230;-82
2023/04/11 09:37:40;;;;;;;2.10;0.60;;;;;;;;;;10258976;28;20217;-82
2023/04/11 09:42:45;;;;;;;3.70;0.50;;;;;;;;;;10271708;28;20249;-80
2023/04/11 09:47:47;;;;;;;1.27;0.40;;;;;;;;;;10247655;28;20240;-81
2023/04/11 09:52:48;;;;;;;0.50;0.50;;;;;;;;;;10269463;28;20217;-80
2023/04/11 09:57:51;;;;;;;0.65;0.52;;;;;;;;;;10256609;28;20226;-81
2023/04/11 10:02:52;;;;;;;1.67;1.00;;;;;;;;;;10235012;28;20244;-81
2023/04/11 10:08:02;;;;;;;1.17;1.08;;;;;;;;;;10266448;28;20312;-81
2023/04/11 10:13:23;;;;;;;1.33;1.33;;;;;;;;;;10249831;28;20232;-81
2023/04/11 10:18:24;;;;;;;2.25;1.98;;;;;;;;;;10259981;28;20221;-81
2023/04/11 10:23:25;;;;;;;1.80;1.70;;;;;;;;;;10254433;28;20222;-81
2023/04/11 10:28:38;;;;;;;1.20;1.20;;;;;;;;;;10270331;28;20245;-81
2023/04/11 10:33:40;;;;;;;1.23;1.20;;;;;;;;;;10256075;28;20233;-79
2023/04/11 10:38:47;;;;;;;2.03;1.70;;;;;;;;;;10267256;28;21325;-82
2023/04/11 10:43:48;;;;;;;3.35;1.40;;;;;;;;;;10284182;28;20229;-80
2023/04/11 10:49:03;;;;;;;1.60;1.10;;;;;;;;;;10245795;28;20232;-81
2023/04/11 10:54:04;;;;;;;1.42;1.20;;;;;;;;;;10265673;28;20217;-80
2023/04/11 10:59:05;;;;;;;1.15;1.15;;;;;;;;;;10250907;28;20627;-80
2023/04/11 11:04:07;;;;;;;0.88;0.88;;;;;;;;;;10267825;28;21952;-79
2023/04/11 11:09:24;;;;;;;3.85;0.90;;;;;;;;;;10247192;28;20256;-80
2023/04/11 11:14:31;;;;;;;1.58;1.40;;;;;;;;;;10271922;28;20224;-82
2023/04/11 11:19:33;;;;;;;5.53;1.63;;;;;;;;;;10264076;28;20217;-80
2023/04/11 11:24:34;;;;;;;1.73;1.20;;;;;;;;;;10246887;28;20225;-80
2023/04/11 11:29:39;;;;;;;1.30;1.30;;;;;;;;;;10268688;28;20252;-81
2023/04/11 11:34:40;;;;;;;1.27;0.88;;;;;;;;;;10254950;28;20229;-81
2023/04/11 11:39:42;;;;;;;0.52;0.30;;;;;;;;;;10276994;28;20252;-81
2023/04/11 11:44:43;;;;;;;0.40;0.40;;;;;;;;;;10261324;28;20217;-78
2023/04/11 11:49:44;;;;;;;0.55;0.30;;;;;;;;;;10259357;28;20631;-80
2023/04/11 11:54:46;;;;;;;0.85;0.70;;;;;;;;;;10258023;28;20281;-80
2023/04/11 11:59:52;;;;;;;0.30;0.30;;;;;;;;;;10257578;28;20878;-82
2023/04/11 12:04:58;;;;;;;0.50;0.50;;;;;;;;;;10278477;28;20221;-81
2023/04/11 12:10:05;;;;;;;1.00;0.30;;;;;;;;;;10263392;28;20285;-81
2023/04/11 12:15:13;;;;;;;0.30;0.20;;;;;;;;;;10277872;28;20221;-79
2023/04/11 12:20:14;;;;;;;0.88;0.40;;;;;;;;;;10247481;28;20743;-83
2023/04/11 12:25:15;;;;;;;0.50;0.40;;;;;;;;;;10279709;28;20213;-81
2023/04/11 12:30:17;;;;;;;0.30;0.30;;;;;;;;;;10263576;28;20225;-81
2023/04/11 12:35:18;;;;;;;1.17;0.40;;;;;;;;;;10263699;28;20771;-80
2023/04/11 12:40:19;;;;;;;0.90;0.40;;;;;;;;;;10261196;28;20205;-80
2023/04/11 12:45:20;;;;;;;2.92;0.65;;;;;;;;;;10279912;28;20246;-83
2023/04/11 12:50:24;;;;;;;1.25;0.50;;;;;;;;;;10253594;28;20255;-81
2023/04/11 12:55:25;;;;;;;1.55;0.60;;;;;;;;;;10263627;28;20222;-80
2023/04/11 13:00:26;;;;;;;0.80;0.80;;;;;;;;;;10264108;28;20288;-81
2023/04/11 13:05:27;;;;;;;0.35;0.30;;;;;;;;;;10240533;28;20366;-79
2023/04/11 13:10:28;;;;;;;0.40;0.40;;;;;;;;;;10265933;28;20293;-80
2023/04/11 13:15:29;;;;;;;1.00;0.30;;;;;;;;;;10269657;28;20760;-81
2023/04/11 13:20:31;;;;;;;2.72;0.40;;;;;;;;;;10277592;28;20265;-80
2023/04/11 13:25:32;;;;;;;0.70;0.30;;;;;;;;;;10268387;28;20258;-80
2023/04/11 13:30:33;;;;;;;1.33;0.57;;;;;;;;;;10269225;28;20938;-82
2023/04/11 13:35:34;;;;;;;0.82;0.40;;;;;;;;;;10278602;28;20307;-82
2023/04/11 13:40:37;;;;;;;1.33;0.20;;;;;;;;;;10252765;28;20345;-83
2023/04/11 13:45:37;;;;;;;0.25;0.25;;;;;;;;;;10273434;28;20233;-80
2023/04/11 13:50:38;;;;;;;2.17;0.52;;;;;;;;;;10286298;28;20233;-80
2023/04/11 13:55:40;;;;;;;1.08;0.40;;;;;;;;;;10294404;28;20213;-79
2023/04/11 14:00:41;;;;;;;1.88;0.50;;;;;;;;;;10273749;28;20225;-81
2023/04/11 14:05:42;;;;;;;0.30;0.22;;;;;;;;;;10256523;28;20257;-81
2023/04/11 14:10:43;;;;;;;0.85;0.30;;;;;;;;;;10261575;28;20236;-80
2023/04/11 14:15:44;;;;;;;4.28;0.30;;;;;;;;;;10288043;28;20232;-80
2023/04/11 14:20:45;;;;;;;0.30;0.30;;;;;;;;;;10274409;28;20235;-81
2023/04/11 14:25:46;;;;;;;1.88;0.47;;;;;;;;;;10286025;28;20233;-83
2023/04/11 14:30:47;;;;;;;0.52;0.40;;;;;;;;;;10286525;28;20692;-81
2023/04/11 14:35:49;;;;;;;1.20;0.63;;;;;;;;;;10253843;28;20250;-81
2023/04/11 14:40:50;;;;;;;2.53;0.98;;;;;;;;;;10256575;28;20256;-82
2023/04/11 14:45:55;;;;;;;2.85;0.52;;;;;;;;;;10268499;28;20221;-82
2023/04/11 14:50:56;;;;;;;1.50;0.65;;;;;;;;;;10251989;28;20332;-81
2023/04/11 14:55:57;;;;;;;0.50;0.50;;;;;;;;;;10242856;28;20224;-82
2023/04/11 15:00:58;;;;;;;1.13;0.30;;;;;;;;;;10243618;28;20232;-82
2023/04/11 15:05:59;;;;;;;2.17;0.25;;;;;;;;;;10251613;28;23738;-79
2023/04/11 15:11:00;;;;;;;1.73;0.30;;;;;;;;;;10235498;28;20665;-83
2023/04/11 15:16:05;;;;;;;0.20;0.20;;;;;;;;;;10233076;28;20213;-81
2023/04/11 15:21:06;;;;;;;2.45;0.20;;;;;;;;;;10266471;28;20221;-81
2023/04/11 15:26:07;;;;;;;0.10;0.10;;;;;;;;;;10253610;28;20224;-82
2023/04/11 15:31:08;;;;;;;0.17;0.17;;;;;;;;;;10261923;28;20213;-81
2023/04/11 15:36:09;;;;;;;1.17;0.20;;;;;;;;;;10273015;28;20222;-82
2023/04/11 15:41:12;;;;;;;1.08;0.10;;;;;;;;;;10257633;28;20245;-82
2023/04/11 15:46:13;;;;;;;0.20;0.20;;;;;;;;;;10277075;28;20771;-81
2023/04/11 15:51:16;;;;;;;1.20;0.20;;;;;;;;;;10269002;28;20217;-81
2023/04/11 15:56:16;;;;;;;0.95;0.28;;;;;;;;;;10268585;28;20213;-80
2023/04/11 16:01:21;;;;;;;0.50;0.20;;;;;;;;;;10265518;28;20289;-81
2023/04/11 16:06:22;;;;;;;1.08;0.28;;;;;;;;;;10267618;28;20848;-81
2023/04/11 16:11:23;;;;;;;0.13;0.13;;;;;;;;;;10267371;28;20217;-82
2023/04/11 16:16:24;;;;;;;0.47;0.25;;;;;;;;;;10251623;28;20217;-80
2023/04/11 16:21:26;;;;;;;0.35;0.35;;;;;;;;;;10260618;28;20221;-80
2023/04/11 16:26:27;;;;;;;2.60;0.20;;;;;;;;;;10282819;28;20351;-83
2023/04/11 16:31:31;;;;;;;0.30;0.30;;;;;;;;;;10270589;28;20281;-83
2023/04/11 16:36:33;;;;;;;0.25;0.22;;;;;;;;;;10253130;28;20238;-85
2023/04/11 16:41:37;;;;;;;0.35;0.30;;;;;;;;;;10263576;28;20221;-83
2023/04/11 16:46:41;;;;;;;0.20;0.20;;;;;;;;;;10261281;28;20631;-82
2023/04/11 16:51:42;;;;;;;0.30;0.30;;;;;;;;;;10256809;28;20229;-82
2023/04/11 16:56:43;;;;;;;0.32;0.30;;;;;;;;;;10255666;28;20217;-81
2023/04/11 17:01:44;;;;;;;2.30;0.52;;;;;;;;;;10250437;28;20260;-82
2023/04/11 17:06:45;;;;;;;0.20;0.20;;;;;;;;;;10253834;28;20237;-81
2023/04/11 17:11:46;;;;;;;1.17;0.50;;;;;;;;;;10257082;28;20323;-80
2023/04/11 17:16:47;;;;;;;1.52;0.30;;;;;;;;;;10237597;28;20307;-81
2023/04/11 17:21:48;;;;;;;1.05;0.40;;;;;;;;;;10247765;28;20229;-83
2023/04/11 17:26:50;;;;;;;0.38;0.30;;;;;;;;;;10257293;28;20991;-84
2023/04/11 17:31:51;;;;;;;0.32;0.30;;;;;;;;;;10256478;28;20263;-82
2023/04/11 17:36:52;;;;;;;1.20;0.40;;;;;;;;;;10271979;28;20218;-82
2023/04/11 17:41:54;;;;;;;2.22;0.40;;;;;;;;;;10271640;28;20639;-85
2023/04/11 17:46:55;;;;;;;2.08;0.40;;;;;;;;;;10223838;28;20224;-82
2023/04/11 17:51:56;;;;;;;1.15;0.70;;;;;;;;;;10277256;28;21003;-83
2023/04/11 17:56:57;;;;;;;1.67;1.00;;;;;;;;;;10259367;28;20216;-82
2023/04/11 18:01:58;;;;;;;1.15;0.90;;;;;;;;;;10246902;28;20217;-82
2023/04/11 18:06:59;;;;;;;3.10;1.75;;;;;;;;;;10234834;28;20217;-80
2023/04/11 18:12:01;;;;;;;0.60;0.60;;;;;;;;;;10234311;28;20217;-82
2023/04/11 18:17:02;;;;;;;2.03;0.93;;;;;;;;;;10255028;28;20744;-80
2023/04/11 18:22:03;;;;;;;1.50;0.90;;;;;;;;;;10232770;28;20221;-81
2023/04/11 18:27:04;;;;;;;1.73;0.80;;;;;;;;;;10237812;28;20221;-82
2023/04/11 18:32:05;;;;;;;0.80;0.77;;;;;;;;;;10251636;28;20225;-82
2023/04/11 18:37:06;;;;;;;0.57;0.57;;;;;;;;;;10250685;28;20213;-81
2023/04/11 18:42:07;;;;;;;0.47;0.47;;;;;;;;;;10221870;28;20272;-82
2023/04/11 18:47:08;;;;;;;1.00;0.43;;;;;;;;;;10244281;28;20232;-81
2023/04/11 18:52:09;;;;;;;1.80;0.70;;;;;;;;;;10234036;28;20218;-81
2023/04/11 18:57:10;;;;;;;0.55;0.55;;;;;;;;;;10236610;28;20225;-81
2023/04/11 19:02:13;;;;;;;2.13;0.60;;;;;;;;;;10254567;28;20272;-84
2023/04/11 19:07:14;;;;;;;0.60;0.60;;;;;;;;;;10236456;28;20215;-82
2023/04/11 19:12:16;;;;;;;2.00;0.88;;;;;;;;;;10239979;28;21612;-83
2023/04/11 19:17:17;;;;;;;1.65;0.70;;;;;;;;;;10256445;28;20773;-80
2023/04/11 19:22:19;;;;;;;0.65;0.65;;;;;;;;;;10253511;28;20679;-82
2023/04/11 19:27:21;;;;;;;1.08;0.50;;;;;;;;;;10251570;28;20225;-83
2023/04/11 19:32:22;;;;;;;0.63;0.63;;;;;;;;;;10272014;28;20288;-82
2023/04/11 19:37:23;;;;;;;1.80;0.65;;;;;;;;;;10270029;28;20218;-82
2023/04/11 19:42:24;;;;;;;1.05;0.95;;;;;;;;;;10259742;28;20233;-82
2023/04/11 19:47:26;;;;;;;2.90;1.45;;;;;;;;;;10290822;28;20698;-82
2023/04/11 19:52:27;;;;;;;3.90;2.38;;;;;;;;;;10268423;28;20224;-81
2023/04/11 19:57:28;;;;;;;3.00;2.03;;;;;;;;;;10289094;28;20885;-81
2023/04/11 20:02:29;;;;;;;1.40;1.30;;;;;;;;;;10288982;28;20495;-82
2023/04/11 20:07:31;;;;;;;2.45;1.20;;;;;;;;;;10272887;28;20261;-82
2023/04/11 20:12:32;;;;;;;1.20;1.20;;;;;;;;;;10270629;28;20690;-82
2023/04/11 20:17:33;;;;;;;0.77;0.77;;;;;;;;;;10259101;28;20233;-81
2023/04/11 20:22:36;;;;;;;0.50;0.50;;;;;;;;;;10250568;28;20245;-82
2023/04/11 20:27:37;;;;;;;1.77;0.88;;;;;;;;;;10252522;28;20311;-81
2023/04/11 20:32:39;;;;;;;0.93;0.75;;;;;;;;;;10240256;28;20248;-81
2023/04/11 20:37:42;;;;;;;0.70;0.70;;;;;;;;;;10253925;28;20615;-83
2023/04/11 20:42:48;;;;;;;1.60;1.50;;;;;;;;;;10268947;28;20344;-81
2023/04/11 20:47:49;;;;;;;2.60;1.65;;;;;;;;;;10277366;28;20240;-81
2023/04/11 20:52:51;;;;;;;2.40;1.25;;;;;;;;;;10266314;28;21013;-81
2023/04/11 20:57:52;;;;;;;2.58;1.00;;;;;;;;;;10284744;28;20269;-81
2023/04/11 21:02:53;;;;;;;0.70;0.70;;;;;;;;;;10284867;28;20728;-81
2023/04/11 21:07:54;;;;;;;1.40;0.98;;;;;;;;;;10275976;28;20649;-81
2023/04/11 21:12:55;;;;;;;1.05;1.05;;;;;;;;;;10275935;28;20257;-80
2023/04/11 21:17:56;;;;;;;3.53;1.42;;;;;;;;;;10274686;28;20260;-81
2023/04/11 21:22:59;;;;;;;3.65;2.63;;;;;;;;;;10251067;28;20241;-82
2023/04/11 21:28:00;;;;;;;6.55;2.20;;;;;;;;;;10280682;28;20221;-81
2023/04/11 21:33:01;;;;;;;1.23;1.13;;;;;;;;;;10277445;28;20228;-81
2023/04/11 21:38:02;;;;;;;1.30;1.20;;;;;;;;;;10281665;28;20305;-81
2023/04/11 21:43:03;;;;;;;3.05;1.13;;;;;;;;;;10268062;28;20221;-81
2023/04/11 21:48:04;;;;;;;1.92;0.90;;;;;;;;;;10270573;28;20241;-78
2023/04/11 21:53:05;;;;;;;3.08;0.93;;;;;;;;;;10265257;28;20240;-82
2023/04/11 21:58:06;;;;;;;2.10;1.13;;;;;;;;;;10279656;28;20253;-81
2023/04/11 22:03:10;;;;;;;1.00;1.00;;;;;;;;;;10280959;28;20242;-82
2023/04/11 22:08:12;;;;;;;1.75;1.10;;;;;;;;;;10270429;28;20308;-79
2023/04/11 22:13:17;;;;;;;2.03;1.05;;;;;;;;;;10266210;28;21093;-81
2023/04/11 22:18:25;;;;;;;2.38;1.10;;;;;;;;;;10268004;28;20249;-82
2023/04/11 22:23:26;;;;;;;2.83;1.40;;;;;;;;;;10258880;28;20735;-81
2023/04/11 22:28:28;;;;;;;0.88;0.88;;;;;;;;;;10273668;28;20226;-82
2023/04/11 22:33:29;;;;;;;1.02;1.00;;;;;;;;;;10262089;28;20242;-79
2023/04/11 22:38:31;;;;;;;1.17;1.00;;;;;;;;;;10279228;28;20217;-82
2023/04/11 22:43:32;;;;;;;1.08;0.90;;;;;;;;;;10268156;28;20309;-81
2023/04/11 22:48:34;;;;;;;0.95;0.88;;;;;;;;;;10292150;28;20221;-81
2023/04/11 22:53:40;;;;;;;0.65;0.65;;;;;;;;;;10272166;28;20237;-81
2023/04/11 22:58:42;;;;;;;3.22;1.10;;;;;;;;;;10272901;28;20226;-80
2023/04/11 23:03:43;;;;;;;2.08;0.98;;;;;;;;;;10265927;28;20707;-80
2023/04/11 23:08:44;;;;;;;1.75;0.70;;;;;;;;;;10274646;28;20618;-81
2023/04/11 23:13:45;;;;;;;3.35;1.02;;;;;;;;;;10276786;28;20236;-81
2023/04/11 23:18:46;;;;;;;1.05;1.02;;;;;;;;;;10258453;28;20221;-83
2023/04/11 23:23:47;;;;;;;1.38;1.33;;;;;;;;;;10254718;28;20226;-81
2023/04/11 23:28:48;;;;;;;4.57;1.23;;;;;;;;;;10277507;28;20225;-81
2023/04/11 23:33:49;;;;;;;3.90;1.33;;;;;;;;;;10268241;28;20217;-80
2023/04/11 23:38:50;;;;;;;1.38;0.70;;;;;;;;;;10282381;28;20224;-82
2023/04/11 23:43:51;;;;;;;2.28;0.90;;;;;;;;;;10298824;28;20381;-82
2023/04/11 23:48:53;;;;;;;2.15;1.27;;;;;;;;;;10299825;28;20312;-79
2023/04/11 23:53:54;;;;;;;0.95;0.95;;;;;;;;;;10270464;28;20236;-81
2023/04/11 23:58:55;;;;;;;0.82;0.82;;;;;;;;;;10262040;28;20289;-81
